createdAt,value
2022-08-25T00:00:20.908Z,99.90
2022-08-25T00:02:55.725Z,99.90
2022-08-25T00:05:32.245Z,99.90
2022-08-25T00:08:02.525Z,99.90
2022-08-25T00:10:33.305Z,99.90
2022-08-25T00:13:03.259Z,99.90
2022-08-25T00:15:32.519Z,99.90
2022-08-25T00:18:01.533Z,99.90
2022-08-25T00:20:32.973Z,99.90
2022-08-25T00:23:01.575Z,99.90
2022-08-25T00:25:31.398Z,99.90
2022-08-25T00:28:03.143Z,99.90
2022-08-25T00:30:36.801Z,99.90
2022-08-25T00:33:05.761Z,99.90
2022-08-25T00:35:35.348Z,99.90
2022-08-25T00:38:04.077Z,99.90
2022-08-25T00:40:34.267Z,99.90
2022-08-25T00:43:02.804Z,99.90
2022-08-25T00:45:31.439Z,99.90
2022-08-25T00:48:00.192Z,99.90
2022-08-25T00:50:31.058Z,99.90
2022-08-25T00:53:03.337Z,99.90
2022-08-25T00:55:39.248Z,99.90
2022-08-25T00:58:14.189Z,99.90
2022-08-25T01:00:47.091Z,99.90
2022-08-25T01:03:15.700Z,99.90
2022-08-25T01:05:45.284Z,99.90
2022-08-25T01:08:16.357Z,99.90
2022-08-25T01:10:47.776Z,99.90
2022-08-25T01:13:20.268Z,99.90
2022-08-25T01:15:51.158Z,99.90
2022-08-25T01:18:23.017Z,99.90
2022-08-25T01:20:53.918Z,99.90
2022-08-25T01:23:22.831Z,99.90
2022-08-25T01:25:59.833Z,99.90
2022-08-25T01:28:28.947Z,99.90
2022-08-25T01:30:57.447Z,99.90
2022-08-25T01:33:28.055Z,99.90
2022-08-25T01:35:57.888Z,99.90
2022-08-25T01:38:26.674Z,99.90
2022-08-25T01:40:55.214Z,99.90
2022-08-25T01:43:37.137Z,99.90
2022-08-25T01:46:06.520Z,99.90
2022-08-25T01:48:35.134Z,99.90
2022-08-25T01:51:04.939Z,99.90
2022-08-25T01:53:33.925Z,99.90
2022-08-25T01:56:11.596Z,99.90
2022-08-25T01:58:42.155Z,99.90
2022-08-25T02:01:12.645Z,99.90
2022-08-25T02:03:43.671Z,99.90
2022-08-25T02:06:14.448Z,99.90
2022-08-25T02:08:44.031Z,99.90
2022-08-25T02:11:13.877Z,99.90
2022-08-25T02:13:43.356Z,99.90
2022-08-25T02:16:18.222Z,99.90
2022-08-25T02:18:47.269Z,99.90
2022-08-25T02:21:17.233Z,99.90
2022-08-25T02:23:48.562Z,99.90
2022-08-25T02:26:19.147Z,99.90
2022-08-25T02:28:48.263Z,99.90
2022-08-25T02:31:18.456Z,99.90
2022-08-25T02:33:47.024Z,99.90
2022-08-25T02:36:18.880Z,99.90
2022-08-25T02:38:47.417Z,99.90
2022-08-25T02:41:21.532Z,99.90
2022-08-25T02:43:54.857Z,99.90
2022-08-25T02:46:24.981Z,99.90
2022-08-25T02:48:54.096Z,99.90
2022-08-25T02:51:25.470Z,99.90
2022-08-25T02:53:54.156Z,99.90
2022-08-25T02:56:22.694Z,99.90
2022-08-25T02:58:53.113Z,99.90
2022-08-25T03:01:28.630Z,99.90
2022-08-25T03:03:58.250Z,99.90
2022-08-25T03:06:28.599Z,99.90
2022-08-25T03:08:57.356Z,99.90
2022-08-25T03:11:26.339Z,99.90
2022-08-25T03:13:58.481Z,99.90
2022-08-25T03:16:28.125Z,99.90
2022-08-25T03:18:57.690Z,99.90
2022-08-25T03:21:30.807Z,99.90
2022-08-25T03:24:00.687Z,99.90
2022-08-25T03:26:48.168Z,99.90
2022-08-25T03:29:18.438Z,99.90
2022-08-25T03:31:49.520Z,99.90
2022-08-25T03:34:21.452Z,99.90
2022-08-25T03:36:53.992Z,99.90
2022-08-25T03:39:24.347Z,99.90
2022-08-25T03:41:53.242Z,99.90
2022-08-25T03:44:23.013Z,99.90
2022-08-25T03:46:53.323Z,99.90
2022-08-25T03:49:23.918Z,99.90
2022-08-25T03:51:56.134Z,99.90
2022-08-25T03:54:26.747Z,99.90
2022-08-25T03:56:55.587Z,99.90
2022-08-25T03:59:27.110Z,99.90
2022-08-25T04:01:55.704Z,99.90
2022-08-25T04:04:27.632Z,99.90
2022-08-25T04:06:58.703Z,99.90
2022-08-25T04:09:27.518Z,99.90
2022-08-25T04:11:59.383Z,99.90
2022-08-25T04:14:28.332Z,99.90
2022-08-25T04:16:56.901Z,99.90
2022-08-25T04:19:27.172Z,99.90
2022-08-25T04:21:57.361Z,99.90
2022-08-25T04:24:25.919Z,99.90
2022-08-25T04:26:54.581Z,99.90
2022-08-25T04:29:25.602Z,99.90
2022-08-25T04:31:55.546Z,99.90
2022-08-25T04:34:30.555Z,99.90
2022-08-25T04:37:03.457Z,99.90
2022-08-25T04:39:32.087Z,99.90
2022-08-25T04:42:01.250Z,99.90
2022-08-25T04:44:33.254Z,99.90
2022-08-25T04:47:02.733Z,99.90
2022-08-25T04:49:32.083Z,99.90
2022-08-25T04:52:01.899Z,99.90
2022-08-25T04:54:32.517Z,99.90
2022-08-25T04:57:06.559Z,99.90
2022-08-25T04:59:35.339Z,99.90
2022-08-25T05:02:05.294Z,99.90
2022-08-25T05:04:34.959Z,99.90
2022-08-25T05:07:05.858Z,99.90
2022-08-25T05:09:34.510Z,99.90
2022-08-25T05:12:03.440Z,99.90
2022-08-25T05:14:32.428Z,99.90
2022-08-25T05:17:01.206Z,99.90
2022-08-25T05:19:29.979Z,99.90
2022-08-25T05:21:58.594Z,99.90
2022-08-25T05:24:30.722Z,99.90
2022-08-25T05:26:59.354Z,99.90
2022-08-25T05:29:29.399Z,99.90
2022-08-25T05:31:57.960Z,99.90
2022-08-25T05:34:26.566Z,99.90
2022-08-25T05:36:57.371Z,99.90
2022-08-25T05:39:27.266Z,99.90
2022-08-25T05:41:55.694Z,99.90
2022-08-25T05:44:24.050Z,99.90
2022-08-25T05:46:52.553Z,99.90
2022-08-25T05:49:23.388Z,99.90
2022-08-25T05:51:53.168Z,99.90
2022-08-25T05:54:21.604Z,99.90
2022-08-25T05:56:51.343Z,99.90
2022-08-25T05:59:20.651Z,99.90
2022-08-25T06:02:06.647Z,99.90
2022-08-25T06:04:41.084Z,99.90
2022-08-25T06:07:09.929Z,99.90
2022-08-25T06:09:39.788Z,99.90
2022-08-25T06:12:11.033Z,99.90
2022-08-25T06:14:39.675Z,99.90
2022-08-25T06:17:08.229Z,99.90
2022-08-25T06:19:41.220Z,99.90
2022-08-25T06:22:12.614Z,99.90
2022-08-25T06:24:41.108Z,99.90
2022-08-25T06:27:10.906Z,99.90
2022-08-25T06:29:39.297Z,99.90
2022-08-25T06:32:12.601Z,99.90
2022-08-25T06:34:41.100Z,99.70
2022-08-25T06:37:10.616Z,99.90
2022-08-25T06:39:39.095Z,98.50
2022-08-25T06:42:07.766Z,98.60
2022-08-25T06:44:37.676Z,97.60
2022-08-25T06:47:06.509Z,98.00
2022-08-25T06:49:36.257Z,97.50
2022-08-25T06:52:07.673Z,97.10
2022-08-25T06:54:38.979Z,96.60
2022-08-25T06:57:08.285Z,96.50
2022-08-25T06:59:41.638Z,95.80
2022-08-25T07:02:10.267Z,95.80
2022-08-25T07:04:38.930Z,94.80
2022-08-25T07:07:07.481Z,94.60
2022-08-25T07:09:39.239Z,94.50
2022-08-25T07:12:08.771Z,93.40
2022-08-25T07:14:38.602Z,93.90
2022-08-25T07:17:11.951Z,93.00
2022-08-25T07:19:41.177Z,90.50
2022-08-25T07:22:09.727Z,87.20
2022-08-25T07:24:38.317Z,89.50
2022-08-25T07:27:07.221Z,89.90
2022-08-25T07:29:42.199Z,89.50
2022-08-25T07:32:11.323Z,92.00
2022-08-25T07:34:57.245Z,92.20
2022-08-25T07:37:47.905Z,91.40
2022-08-25T07:40:16.273Z,92.40
2022-08-25T07:42:46.838Z,92.70
2022-08-25T07:45:17.383Z,93.40
2022-08-25T07:47:51.578Z,94.50
2022-08-25T07:50:21.404Z,94.30
2022-08-25T07:52:55.025Z,95.10
2022-08-25T07:55:25.305Z,95.60
2022-08-25T07:57:57.121Z,95.00
2022-08-25T08:00:30.274Z,95.50
2022-08-25T08:02:59.098Z,95.60
2022-08-25T08:05:27.969Z,95.50
2022-08-25T08:07:57.699Z,95.20
2022-08-25T08:11:03.290Z,95.40
2022-08-25T08:13:18.570Z,95.80
2022-08-25T08:15:48.920Z,95.70
2022-08-25T08:18:18.457Z,95.80
2022-08-25T08:20:48.211Z,95.80
2022-08-25T08:23:18.217Z,96.00
2022-08-25T08:25:46.941Z,96.10
2022-08-25T08:28:15.472Z,95.70
2022-08-25T08:30:53.094Z,95.80
2022-08-25T08:33:25.779Z,95.70
2022-08-25T08:36:05.302Z,96.10
2022-08-25T08:38:34.701Z,96.10
2022-08-25T08:41:30.541Z,96.00
2022-08-25T08:44:11.673Z,96.20
2022-08-25T08:46:47.016Z,96.50
2022-08-25T08:49:27.663Z,96.60
2022-08-25T08:52:01.664Z,96.50
2022-08-25T08:54:35.183Z,96.50
2022-08-25T08:57:09.818Z,96.30
2022-08-25T08:59:45.020Z,96.90
2022-08-25T09:02:51.424Z,96.60
2022-08-25T09:05:28.749Z,96.70
2022-08-25T09:08:00.885Z,96.50
2022-08-25T09:10:55.483Z,97.00
2022-08-25T09:13:34.364Z,97.30
2022-08-25T09:16:33.779Z,97.70
2022-08-25T09:19:21.390Z,98.20
2022-08-25T09:22:00.423Z,98.70
2022-08-25T09:24:44.946Z,98.90
2022-08-25T09:27:25.578Z,98.90
2022-08-25T09:30:05.226Z,99.00
2022-08-25T09:32:39.949Z,99.10
2022-08-25T09:35:20.685Z,98.80
2022-08-25T09:38:01.781Z,98.40
2022-08-25T09:40:33.854Z,98.60
2022-08-25T09:43:05.706Z,98.60
2022-08-25T09:45:42.596Z,98.90
2022-08-25T09:48:28.545Z,98.80
2022-08-25T09:51:01.387Z,98.80
2022-08-25T09:53:33.917Z,98.80
2022-08-25T09:56:06.872Z,99.10
2022-08-25T09:58:35.327Z,98.70
2022-08-25T10:01:13.255Z,99.10
2022-08-25T10:03:56.220Z,99.10
2022-08-25T10:06:26.400Z,98.90
2022-08-25T10:09:00.381Z,98.90
2022-08-25T10:11:43.536Z,99.00
2022-08-25T10:14:22.904Z,99.00
2022-08-25T10:16:54.583Z,99.00
2022-08-25T10:19:29.034Z,98.70
2022-08-25T10:22:11.064Z,98.60
2022-08-25T10:24:43.850Z,98.80
2022-08-25T10:27:25.955Z,98.90
2022-08-25T10:30:09.547Z,98.90
2022-08-25T10:32:59.169Z,98.90
2022-08-25T10:35:32.410Z,98.60
2022-08-25T10:38:13.445Z,98.90
2022-08-25T10:40:58.265Z,99.10
2022-08-25T10:43:35.188Z,99.50
2022-08-25T10:46:14.764Z,99.60
2022-08-25T10:48:59.146Z,99.60
2022-08-25T10:51:51.353Z,99.50
2022-08-25T10:54:42.406Z,99.20
2022-08-25T10:57:21.791Z,99.00
2022-08-25T10:59:58.885Z,99.10
2022-08-25T11:03:01.953Z,99.20
2022-08-25T11:05:36.821Z,99.40
2022-08-25T11:08:13.097Z,99.20
2022-08-25T11:10:47.996Z,99.30
2022-08-25T11:13:30.388Z,99.80
2022-08-25T11:16:20.325Z,99.90
2022-08-25T11:18:53.995Z,99.90
2022-08-25T11:21:27.839Z,99.50
2022-08-25T11:24:05.721Z,99.50
2022-08-25T11:26:38.362Z,99.10
2022-08-25T11:29:18.084Z,99.10
2022-08-25T11:31:53.298Z,99.20
2022-08-25T11:34:25.375Z,98.80
2022-08-25T11:37:03.936Z,98.70
2022-08-25T11:39:55.894Z,99.20
2022-08-25T11:42:36.219Z,98.80
2022-08-25T11:45:16.979Z,99.10
2022-08-25T11:47:59.521Z,99.30
2022-08-25T11:50:35.130Z,99.20
2022-08-25T11:53:28.397Z,98.90
2022-08-25T11:56:05.585Z,99.30
2022-08-25T11:58:50.771Z,99.40
2022-08-25T12:02:11.199Z,99.50
2022-08-25T12:04:45.324Z,98.90
2022-08-25T12:07:24.471Z,99.00
2022-08-25T12:10:16.448Z,99.50
2022-08-25T12:13:04.729Z,99.50
2022-08-25T12:15:59.616Z,99.30
2022-08-25T12:18:46.624Z,99.40
2022-08-25T12:21:34.155Z,99.30
2022-08-25T12:24:17.511Z,99.00
2022-08-25T12:26:54.972Z,98.70
2022-08-25T12:29:32.575Z,98.70
2022-08-25T12:32:32.900Z,98.40
2022-08-25T12:35:18.426Z,98.70
2022-08-25T12:38:02.690Z,98.10
2022-08-25T12:40:35.863Z,98.80
2022-08-25T12:43:24.897Z,98.50
2022-08-25T12:45:55.759Z,97.70
2022-08-25T12:49:00.398Z,97.80
2022-08-25T12:51:42.157Z,97.60
2022-08-25T12:54:25.224Z,97.50
2022-08-25T12:56:57.384Z,97.50
2022-08-25T12:59:36.273Z,97.20
2022-08-25T13:02:39.813Z,96.90
2022-08-25T13:06:00.611Z,97.20
2022-08-25T13:08:57.020Z,97.50
2022-08-25T13:11:35.266Z,97.60
2022-08-25T13:14:12.476Z,97.40
2022-08-25T13:16:41.356Z,97.60
2022-08-25T13:19:21.158Z,97.50
2022-08-25T13:21:50.454Z,97.60
2022-08-25T13:24:30.231Z,97.40
2022-08-25T13:27:07.831Z,97.40
2022-08-25T13:29:49.818Z,97.60
2022-08-25T13:32:31.986Z,97.80
2022-08-25T13:35:15.605Z,98.20
2022-08-25T13:37:46.261Z,98.20
2022-08-25T13:40:17.724Z,97.90
2022-08-25T13:42:55.649Z,98.00
2022-08-25T13:45:27.752Z,97.50
2022-08-25T13:47:57.264Z,97.50
2022-08-25T13:50:34.820Z,97.00
2022-08-25T13:53:05.424Z,96.80
2022-08-25T13:55:38.128Z,96.60
2022-08-25T13:58:24.396Z,96.70
2022-08-25T14:01:23.687Z,96.10
2022-08-25T14:04:01.425Z,96.70
2022-08-25T14:06:30.191Z,96.20
2022-08-25T14:09:16.701Z,96.20
2022-08-25T14:11:49.877Z,96.10
2022-08-25T14:14:35.025Z,96.50
2022-08-25T14:17:22.405Z,96.60
2022-08-25T14:19:58.325Z,96.20
2022-08-25T14:22:27.745Z,96.20
2022-08-25T14:24:56.784Z,96.10
2022-08-25T14:27:25.463Z,96.10
2022-08-25T14:29:58.322Z,95.80
2022-08-25T14:32:27.402Z,95.80
2022-08-25T14:34:56.003Z,95.70
2022-08-25T14:37:27.764Z,95.40
2022-08-25T14:39:58.423Z,95.80
2022-08-25T14:42:28.847Z,95.50
2022-08-25T14:44:59.023Z,95.50
2022-08-25T14:47:28.562Z,95.30
2022-08-25T14:49:57.172Z,95.50
2022-08-25T14:52:30.436Z,95.10
2022-08-25T14:54:58.938Z,95.00
2022-08-25T14:57:27.904Z,95.20
2022-08-25T14:59:58.056Z,95.40
2022-08-25T15:02:30.632Z,95.50
2022-08-25T15:05:02.215Z,95.90
2022-08-25T15:07:50.129Z,95.90
2022-08-25T15:10:19.123Z,96.10
2022-08-25T15:12:53.970Z,95.90
2022-08-25T15:15:26.410Z,96.00
2022-08-25T15:18:04.879Z,96.00
2022-08-25T15:20:35.280Z,95.90
2022-08-25T15:23:05.591Z,95.50
2022-08-25T15:25:35.853Z,95.90
2022-08-25T15:28:05.738Z,95.30
2022-08-25T15:30:43.269Z,95.30
2022-08-25T15:33:15.709Z,95.00
2022-08-25T15:35:44.335Z,95.20
2022-08-25T15:38:14.207Z,95.40
2022-08-25T15:40:42.701Z,95.40
2022-08-25T15:43:11.291Z,95.40
2022-08-25T15:45:40.748Z,95.30
2022-08-25T15:48:09.696Z,95.10
2022-08-25T15:50:39.726Z,95.30
2022-08-25T15:53:10.351Z,95.30
2022-08-25T15:55:40.231Z,95.10
2022-08-25T15:58:09.131Z,95.10
2022-08-25T16:00:38.524Z,94.80
2022-08-25T16:03:08.255Z,94.80
2022-08-25T16:05:39.335Z,94.90
2022-08-25T16:08:16.208Z,95.00
2022-08-25T16:10:48.172Z,95.40
2022-08-25T16:13:18.601Z,95.80
2022-08-25T16:15:53.144Z,95.90
2022-08-25T16:18:23.621Z,95.80
2022-08-25T16:20:54.160Z,95.40
2022-08-25T16:23:23.007Z,95.70
2022-08-25T16:25:51.751Z,95.90
2022-08-25T16:28:20.647Z,96.20
2022-08-25T16:30:53.323Z,96.40
2022-08-25T16:33:22.334Z,96.30
2022-08-25T16:35:50.608Z,96.40
2022-08-25T16:38:22.591Z,96.70
2022-08-25T16:40:51.063Z,96.30
2022-08-25T16:43:20.727Z,96.50
2022-08-25T16:45:57.624Z,96.70
2022-08-25T16:48:26.200Z,96.80
2022-08-25T16:50:54.714Z,97.00
2022-08-25T16:53:42.400Z,97.00
2022-08-25T16:56:13.859Z,97.10
2022-08-25T16:58:42.243Z,97.20
2022-08-25T17:01:14.433Z,97.40
2022-08-25T17:03:44.249Z,97.50
2022-08-25T17:06:14.231Z,97.60
2022-08-25T17:08:45.123Z,97.80
2022-08-25T17:11:16.043Z,97.50
2022-08-25T17:13:46.399Z,97.60
2022-08-25T17:16:15.753Z,97.60
2022-08-25T17:18:47.610Z,97.80
2022-08-25T17:21:24.005Z,97.80
2022-08-25T17:23:55.723Z,97.80
2022-08-25T17:26:27.807Z,98.00
2022-08-25T17:28:59.366Z,98.20
2022-08-25T17:31:30.014Z,98.30
2022-08-25T17:33:59.967Z,98.30
2022-08-25T17:36:28.843Z,97.90
2022-08-25T17:39:00.632Z,97.80
2022-08-25T17:41:30.134Z,97.70
2022-08-25T17:43:59.733Z,98.00
2022-08-25T17:46:28.447Z,98.10
2022-08-25T17:48:57.264Z,98.10
2022-08-25T17:51:29.735Z,98.30
2022-08-25T17:54:01.951Z,98.20
2022-08-25T17:56:31.712Z,98.20
2022-08-25T17:59:00.144Z,98.30
2022-08-25T18:01:33.599Z,99.40
2022-08-25T18:04:02.207Z,99.50
2022-08-25T18:06:31.537Z,99.90
2022-08-25T18:09:03.847Z,99.90
2022-08-25T18:11:34.021Z,99.90
2022-08-25T18:14:02.470Z,99.90
2022-08-25T18:16:31.079Z,99.90
2022-08-25T18:18:59.447Z,99.90
2022-08-25T18:21:30.928Z,99.90
2022-08-25T18:24:02.076Z,99.90
2022-08-25T18:26:32.072Z,99.90
2022-08-25T18:29:00.608Z,99.90
2022-08-25T18:31:29.261Z,99.90
2022-08-25T18:33:57.934Z,99.90
2022-08-25T18:36:28.130Z,99.90
2022-08-25T18:39:14.119Z,99.90
2022-08-25T18:41:45.211Z,99.90
2022-08-25T18:44:15.602Z,99.90
2022-08-25T18:46:45.493Z,99.90
2022-08-25T18:49:15.592Z,99.90
2022-08-25T18:51:45.506Z,99.90
2022-08-25T18:54:23.353Z,99.90
2022-08-25T18:56:54.752Z,99.90
2022-08-25T18:59:24.207Z,99.90
2022-08-25T19:01:53.993Z,99.90
2022-08-25T19:04:28.322Z,99.90
2022-08-25T19:07:00.939Z,99.90
2022-08-25T19:09:30.588Z,99.90
2022-08-25T19:12:00.726Z,99.90
2022-08-25T19:14:29.638Z,99.90
2022-08-25T19:17:01.655Z,99.90
2022-08-25T19:19:30.179Z,99.90
2022-08-25T19:21:59.327Z,99.90
2022-08-25T19:24:28.647Z,99.90
2022-08-25T19:26:58.013Z,99.90
2022-08-25T19:29:30.346Z,99.90
2022-08-25T19:32:01.181Z,99.90
2022-08-25T19:34:33.081Z,99.90
2022-08-25T19:37:04.866Z,99.90
2022-08-25T19:39:34.699Z,99.90
2022-08-25T19:42:03.396Z,99.90
2022-08-25T19:44:34.068Z,99.90
2022-08-25T19:47:04.371Z,99.90
2022-08-25T19:49:38.393Z,99.90
2022-08-25T19:52:11.563Z,99.90
2022-08-25T19:54:46.143Z,99.90
2022-08-25T19:57:28.403Z,99.90
2022-08-25T20:00:08.605Z,99.90
2022-08-25T20:02:40.862Z,99.90
2022-08-25T20:05:10.025Z,99.90
2022-08-25T20:07:38.601Z,99.90
2022-08-25T20:10:14.337Z,99.90
2022-08-25T20:12:44.716Z,99.90
2022-08-25T20:15:17.624Z,99.90
2022-08-25T20:17:48.100Z,99.90
2022-08-25T20:20:18.758Z,99.90
2022-08-25T20:22:49.491Z,99.90
2022-08-25T20:25:19.679Z,99.90
2022-08-25T20:27:51.692Z,99.90
2022-08-25T20:30:23.603Z,99.90
2022-08-25T20:32:55.968Z,99.90
2022-08-25T20:35:27.116Z,99.90
2022-08-25T20:37:56.873Z,99.90
2022-08-25T20:40:27.866Z,99.90
2022-08-25T20:42:57.540Z,99.90
2022-08-25T20:45:27.501Z,99.90
2022-08-25T20:47:56.858Z,99.90
2022-08-25T20:50:25.398Z,99.90
2022-08-25T20:52:56.776Z,99.90
2022-08-25T20:55:27.727Z,99.90
2022-08-25T20:57:56.970Z,99.90
2022-08-25T21:00:27.011Z,99.90
2022-08-25T21:02:56.954Z,99.90
2022-08-25T21:05:25.425Z,99.90
2022-08-25T21:07:54.790Z,99.90
2022-08-25T21:10:23.522Z,99.90
2022-08-25T21:12:53.461Z,99.90
2022-08-25T21:15:22.243Z,99.90
2022-08-25T21:17:54.333Z,99.90
2022-08-25T21:20:24.795Z,99.90
2022-08-25T21:22:54.423Z,99.90
2022-08-25T21:25:23.280Z,99.90
2022-08-25T21:27:51.805Z,99.90
2022-08-25T21:30:20.343Z,99.90
2022-08-25T21:32:53.442Z,99.90
2022-08-25T21:35:24.858Z,99.90
2022-08-25T21:37:53.926Z,99.90
2022-08-25T21:40:23.979Z,99.90
2022-08-25T21:42:53.283Z,99.90
2022-08-25T21:45:23.472Z,99.90
2022-08-25T21:47:52.492Z,99.90
2022-08-25T21:50:21.462Z,99.90
2022-08-25T21:52:54.651Z,99.90
2022-08-25T21:55:23.513Z,99.90
2022-08-25T21:57:52.649Z,99.90
2022-08-25T22:00:22.340Z,99.90
2022-08-25T22:02:51.621Z,99.90
2022-08-25T22:05:20.236Z,99.90
2022-08-25T22:07:50.057Z,99.90
2022-08-25T22:10:21.135Z,99.90
2022-08-25T22:12:51.640Z,99.90
2022-08-25T22:15:20.659Z,99.90
2022-08-25T22:17:49.325Z,99.90
2022-08-25T22:20:19.635Z,99.90
2022-08-25T22:22:51.301Z,99.90
2022-08-25T22:25:20.068Z,99.90
2022-08-25T22:27:48.760Z,99.90
2022-08-25T22:30:25.380Z,99.90
2022-08-25T22:32:59.539Z,99.90
2022-08-25T22:35:29.044Z,99.90
2022-08-25T22:37:58.940Z,99.90
2022-08-25T22:40:27.480Z,99.90
2022-08-25T22:42:57.568Z,99.90
2022-08-25T22:45:27.352Z,99.90
2022-08-25T22:47:56.364Z,99.90
2022-08-25T22:50:27.166Z,99.90
2022-08-25T22:52:55.753Z,99.90
2022-08-25T22:55:25.707Z,99.90
2022-08-25T22:57:56.925Z,99.90
2022-08-25T23:00:25.488Z,99.90
2022-08-25T23:02:54.455Z,99.90
2022-08-25T23:05:23.302Z,99.90
2022-08-25T23:07:51.789Z,99.90
2022-08-25T23:10:22.732Z,99.90
2022-08-25T23:12:52.783Z,99.90
2022-08-25T23:15:21.322Z,99.90
2022-08-25T23:17:50.634Z,99.90
2022-08-25T23:20:45.144Z,99.90
2022-08-25T23:23:14.869Z,99.90
2022-08-25T23:25:43.335Z,99.90
2022-08-25T23:28:13.444Z,99.90
2022-08-25T23:30:45.339Z,99.90
2022-08-25T23:33:26.509Z,99.90
2022-08-25T23:36:00.148Z,99.90
2022-08-25T23:38:29.471Z,99.90
2022-08-25T23:40:58.905Z,99.90
2022-08-25T23:43:29.393Z,99.90
2022-08-25T23:46:00.937Z,99.90
2022-08-25T23:48:30.866Z,99.90
2022-08-25T23:51:00.819Z,99.90
2022-08-25T23:53:29.991Z,99.90
2022-08-25T23:55:59.756Z,99.90
2022-08-25T23:58:30.224Z,99.90
